X  Kiinni Metar Aviation säätiedot     KNPA Naval Air Station Pensacola Forrest Sherman Field
Lämpötila
75°F Lämpötila
73°F Kastepiste
94% Kosteus



Tuuli
0 MPH
0 KM/T
0 M/S
0 KTS



Rauhoittaa
P
Nykyiset olosuhteet

Kirkas Kirkas
Paine 1016.92 (hPa) - 30.03 (inHg)
Näkyvyys 10 (maili) - 16.1 (km)
Lentokenttä
Lentokentän koodi KNPA

Sijainti: Naval Air Station Pensacola Forrest Sherman Field
Etäisyys: 14 (mi)

Metar:
KNPA 030456Z AUTO 00000KT 10SM CLR 24/23 A3003 RMK AO2 SLP170 T02440228 $

Aika: 02-07-2022 23:56 CDT